Bulktec — VRFJ3 — position and weather

sailwx.info

Track history (hours):
 
Tides and Currents Weather Stations Pressure Air Temp Water Temp Dewpoint Dewpoint Depression Visibility Wind Speed Wind Dir Waves Ship Positions

Bulktec

Last reported at 2017-Feb-19 23:10 UTC. Time now 2017-Feb-24 08:11 UTC.
Position S 29°43' E 031°42'.

Length 179 m; draft 6.6 m.

Type: Cargo ship. MMSI: 3699076.

Date/timePositionNaut miles runAvg speedWind from/ knotsBaromVisibWave heightAir tempDewpointWater temp
2017-Feb-19 23:10S 29°43' E 031°42'5 8.4
2017-Feb-19 22:33S 29°44' E 031°37'8 8.4
2017-Feb-19 21:33S 29°46' E 031°27'10 9.6
2017-Feb-19 20:33S 29°48' E 031°16'1110.7
2017-Feb-19 19:33S 29°51' E 031°05'3 2.7
2017-Feb-19 18:33S 29°53' E 031°02'0 0.0
2017-Feb-19 17:33S 29°53' E 031°02'0 0.0
2017-Feb-19 16:33S 29°53' E 031°02'0 0.0
2017-Feb-19 15:33S 29°53' E 031°02'0 0.0
2017-Feb-19 14:33S 29°53' E 031°02'0 0.0
2017-Feb-19 13:33S 29°53' E 031°02'0 0.0
2017-Feb-19 12:33S 29°53' E 031°02'0 0.0
2017-Feb-19 11:33S 29°53' E 031°02'0 0.0
2017-Feb-19 10:33S 29°53' E 031°02'0 0.0
2017-Feb-19 09:33S 29°53' E 031°02'0 0.0
2017-Feb-19 08:33S 29°53' E 031°02'0 0.0
2017-Feb-19 07:33S 29°53' E 031°02'0 0.0
2017-Feb-19 06:33S 29°53' E 031°02'0 0.0
2017-Feb-19 05:33S 29°53' E 031°02'0 0.0
2017-Feb-19 04:33S 29°53' E 031°02'0 0.0
2017-Feb-19 03:33S 29°53' E 031°02'0 0.0
2017-Feb-19 02:32S 29°53' E 031°02'0 0.0
2017-Feb-19 01:33S 29°53' E 031°02'0 0.0
2017-Feb-19 00:33S 29°53' E 031°02'0 0.0
2017-Feb-18 23:32S 29°53' E 031°02'0 0.0
2017-Feb-18 22:33S 29°53' E 031°02'0 0.0
2017-Feb-18 21:32S 29°53' E 031°02'0 0.0
2017-Feb-18 20:33S 29°53' E 031°02'0 0.0
2017-Feb-18 19:33S 29°53' E 031°02'0 0.0
2017-Feb-18 18:33S 29°53' E 031°02'0 0.0
2017-Feb-18 17:33S 29°53' E 031°02'0 0.0
2017-Feb-18 16:33S 29°53' E 031°02'0 0.0
2017-Feb-18 15:33S 29°53' E 031°02'0 0.0
2017-Feb-18 14:33S 29°53' E 031°02'0 0.0
2017-Feb-18 13:33S 29°53' E 031°02'0 0.0
2017-Feb-18 12:33S 29°53' E 031°02'0 0.0
2017-Feb-18 11:33S 29°53' E 031°02'0 0.0
2017-Feb-18 10:33S 29°53' E 031°02'0 0.0
2017-Feb-18 09:33S 29°53' E 031°02'0 0.0
2017-Feb-18 08:33S 29°53' E 031°02'0 0.0
2017-Feb-18 07:33S 29°53' E 031°02'0 0.0
2017-Feb-18 06:33S 29°53' E 031°02'0 0.0
2017-Feb-18 05:33S 29°53' E 031°02'0 0.0
2017-Feb-18 04:33S 29°53' E 031°02'0 0.0
2017-Feb-18 03:33S 29°53' E 031°02'0 0.0
2017-Feb-18 02:33S 29°53' E 031°02'0 0.0
2017-Feb-18 01:33S 29°53' E 031°02'0 0.0
2017-Feb-18 00:33S 29°53' E 031°02'0 0.0
2017-Feb-17 23:33S 29°53' E 031°02'0 0.0
2017-Feb-17 22:33S 29°53' E 031°02'0 0.0
2017-Feb-17 21:33S 29°53' E 031°02'0 0.0
2017-Feb-17 20:33S 29°53' E 031°02'0 0.0
2017-Feb-17 19:33S 29°53' E 031°02'0 0.0
2017-Feb-17 18:33S 29°53' E 031°02'0 0.0
2017-Feb-17 17:33S 29°53' E 031°02'0 0.0
2017-Feb-17 16:33S 29°53' E 031°02'0 0.0
2017-Feb-17 15:33S 29°53' E 031°02'0 0.0
2017-Feb-17 14:33S 29°53' E 031°02'0 0.0
2017-Feb-17 13:33S 29°53' E 031°02'0 0.0
2017-Feb-17 12:33S 29°53' E 031°02'0 0.0
2017-Feb-17 11:33S 29°53' E 031°02'0 0.0
2017-Feb-17 10:33S 29°53' E 031°02'0 0.0
2017-Feb-17 09:33S 29°53' E 031°02'0 0.0
2017-Feb-17 08:33S 29°53' E 031°02'0 0.0
2017-Feb-17 07:33S 29°53' E 031°02'0 0.0
2017-Feb-17 06:33S 29°53' E 031°02'2 1.7
2017-Feb-17 05:33S 29°52' E 031°04'3 2.8
2017-Feb-17 04:34S 29°50' E 031°06'4 4.1
2017-Feb-17 03:33S 29°54' E 031°07'3 2.8
2017-Feb-17 02:33S 29°57' E 031°08'3 2.8
2017-Feb-17 01:34S 29°59' E 031°09'2 2.2
2017-Feb-17 00:33S 30°01' E 031°07'4 3.5
2017-Feb-16 23:33S 30°04' E 031°06'3 2.9
2017-Feb-16 22:33S 30°07' E 031°04'3 3.1
2017-Feb-16 21:33S 30°10' E 031°02'7 7.5
2017-Feb-16 20:33S 30°16' E 030°58'  
Track history (hours):
 
Tides and Currents Weather Stations Pressure Air Temp Water Temp Dewpoint Dewpoint Depression Visibility Wind Speed Wind Dir Waves Ship Positions

Bulktec

Last reported at 2017-Feb-19 23:10 UTC. Time now 2017-Feb-24 08:11 UTC.
Position S 29°43' E 031°42'.

Length 179 m; draft 6.6 m.

Type: Cargo ship. MMSI: 3699076.

Date/timePositionNaut miles runAvg speedWind from/ knotsBaromVisibWave heightAir tempDewpointWater temp
2017-Feb-19 23:10S 29°43' E 031°42'5 8.4
2017-Feb-19 22:33S 29°44' E 031°37'8 8.4
2017-Feb-19 21:33S 29°46' E 031°27'10 9.6
2017-Feb-19 20:33S 29°48' E 031°16'1110.7
2017-Feb-19 19:33S 29°51' E 031°05'3 2.7
2017-Feb-19 18:33S 29°53' E 031°02'0 0.0
2017-Feb-19 17:33S 29°53' E 031°02'0 0.0
2017-Feb-19 16:33S 29°53' E 031°02'0 0.0
2017-Feb-19 15:33S 29°53' E 031°02'0 0.0
2017-Feb-19 14:33S 29°53' E 031°02'0 0.0
2017-Feb-19 13:33S 29°53' E 031°02'0 0.0
2017-Feb-19 12:33S 29°53' E 031°02'0 0.0
2017-Feb-19 11:33S 29°53' E 031°02'0 0.0
2017-Feb-19 10:33S 29°53' E 031°02'0 0.0
2017-Feb-19 09:33S 29°53' E 031°02'0 0.0
2017-Feb-19 08:33S 29°53' E 031°02'0 0.0
2017-Feb-19 07:33S 29°53' E 031°02'0 0.0
2017-Feb-19 06:33S 29°53' E 031°02'0 0.0
2017-Feb-19 05:33S 29°53' E 031°02'0 0.0
2017-Feb-19 04:33S 29°53' E 031°02'0 0.0
2017-Feb-19 03:33S 29°53' E 031°02'0 0.0
2017-Feb-19 02:32S 29°53' E 031°02'0 0.0
2017-Feb-19 01:33S 29°53' E 031°02'0 0.0
2017-Feb-19 00:33S 29°53' E 031°02'0 0.0
2017-Feb-18 23:32S 29°53' E 031°02'0 0.0
2017-Feb-18 22:33S 29°53' E 031°02'0 0.0
2017-Feb-18 21:32S 29°53' E 031°02'0 0.0
2017-Feb-18 20:33S 29°53' E 031°02'0 0.0
2017-Feb-18 19:33S 29°53' E 031°02'0 0.0
2017-Feb-18 18:33S 29°53' E 031°02'0 0.0
2017-Feb-18 17:33S 29°53' E 031°02'0 0.0
2017-Feb-18 16:33S 29°53' E 031°02'0 0.0
2017-Feb-18 15:33S 29°53' E 031°02'0 0.0
2017-Feb-18 14:33S 29°53' E 031°02'0 0.0
2017-Feb-18 13:33S 29°53' E 031°02'0 0.0
2017-Feb-18 12:33S 29°53' E 031°02'0 0.0
2017-Feb-18 11:33S 29°53' E 031°02'0 0.0
2017-Feb-18 10:33S 29°53' E 031°02'0 0.0
2017-Feb-18 09:33S 29°53' E 031°02'0 0.0
2017-Feb-18 08:33S 29°53' E 031°02'0 0.0
2017-Feb-18 07:33S 29°53' E 031°02'0 0.0
2017-Feb-18 06:33S 29°53' E 031°02'0 0.0
2017-Feb-18 05:33S 29°53' E 031°02'0 0.0
2017-Feb-18 04:33S 29°53' E 031°02'0 0.0
2017-Feb-18 03:33S 29°53' E 031°02'0 0.0
2017-Feb-18 02:33S 29°53' E 031°02'0 0.0
2017-Feb-18 01:33S 29°53' E 031°02'0 0.0
2017-Feb-18 00:33S 29°53' E 031°02'0 0.0
2017-Feb-17 23:33S 29°53' E 031°02'0 0.0
2017-Feb-17 22:33S 29°53' E 031°02'0 0.0
2017-Feb-17 21:33S 29°53' E 031°02'0 0.0
2017-Feb-17 20:33S 29°53' E 031°02'0 0.0
2017-Feb-17 19:33S 29°53' E 031°02'0 0.0
2017-Feb-17 18:33S 29°53' E 031°02'0 0.0
2017-Feb-17 17:33S 29°53' E 031°02'0 0.0
2017-Feb-17 16:33S 29°53' E 031°02'0 0.0
2017-Feb-17 15:33S 29°53' E 031°02'0 0.0
2017-Feb-17 14:33S 29°53' E 031°02'0 0.0
2017-Feb-17 13:33S 29°53' E 031°02'0 0.0
2017-Feb-17 12:33S 29°53' E 031°02'0 0.0
2017-Feb-17 11:33S 29°53' E 031°02'0 0.0
2017-Feb-17 10:33S 29°53' E 031°02'0 0.0
2017-Feb-17 09:33S 29°53' E 031°02'0 0.0
2017-Feb-17 08:33S 29°53' E 031°02'0 0.0
2017-Feb-17 07:33S 29°53' E 031°02'0 0.0
2017-Feb-17 06:33S 29°53' E 031°02'2 1.7
2017-Feb-17 05:33S 29°52' E 031°04'3 2.8
2017-Feb-17 04:34S 29°50' E 031°06'4 4.1
2017-Feb-17 03:33S 29°54' E 031°07'3 2.8
2017-Feb-17 02:33S 29°57' E 031°08'3 2.8
2017-Feb-17 01:34S 29°59' E 031°09'2 2.2
2017-Feb-17 00:33S 30°01' E 031°07'4 3.5
2017-Feb-16 23:33S 30°04' E 031°06'3 2.9
2017-Feb-16 22:33S 30°07' E 031°04'3 3.1
2017-Feb-16 21:33S 30°10' E 031°02'7 7.5
2017-Feb-16 20:33S 30°16' E 030°58'  

Dump ship's entire track history